Aviation Digital Data Service (ADDS)

Output produced by METARs form (0345 UTC 28 June 2016)
found at http://www.aviationweather.gov/adds/metars/
 
SEGU 280300Z 22007KT 200V260 9999 BKN040 SCT100 26/19 Q1010 NOSIG RMK A2984
SEGU 272220Z 2800/2824 22012KT 9999 SCT020 BKN100 
     FM281000 24006KT 9999 BKN020 BKN100 
     FM281800 20010KT 9999 SCT020 BKN100 TX31/2819Z TN23/2810Z SEQM 272220Z 2800/2824 15005KT 9999 FEW040 
     FM281000 VRB03KT 9999 SCT040 
     TEMPO 2815/2818 33010KT 
     FM281800 03012KT 9999 SCT040 TX24/2819Z TN10/2811Z
       
SEMT 280300Z 21006KT 9999 OVC026 25/21 Q1011 RMK A2987
SEMT 272220Z 2800/2824 220005KT 9999 BKN023 
     FM281500 24010KT 9999 BKN023 TX30/2820Z TN23/2810Z